sensor_id;sensor_type;location;lat;lon;timestamp;P1;durP1;ratioP1;P2;durP2;ratioP2
11921;SDS011;6021;51.182;3.160;2023-02-18T00:01:40;17.60;;;11.73;;
11921;SDS011;6021;51.182;3.160;2023-02-18T00:04:09;17.67;;;12.40;;
11921;SDS011;6021;51.182;3.160;2023-02-18T00:06:37;15.57;;;11.20;;
11921;SDS011;6021;51.182;3.160;2023-02-18T00:09:07;17.43;;;11.37;;
11921;SDS011;6021;51.182;3.160;2023-02-18T00:11:36;17.10;;;11.60;;
11921;SDS011;6021;51.182;3.160;2023-02-18T00:14:07;17.87;;;12.30;;
11921;SDS011;6021;51.182;3.160;2023-02-18T00:16:36;17.77;;;11.50;;
11921;SDS011;6021;51.182;3.160;2023-02-18T00:19:07;16.20;;;11.67;;
11921;SDS011;6021;51.182;3.160;2023-02-18T00:21:41;17.00;;;13.90;;
11921;SDS011;6021;51.182;3.160;2023-02-18T00:24:10;13.43;;;10.40;;
11921;SDS011;6021;51.182;3.160;2023-02-18T00:26:41;13.90;;;9.97;;
11921;SDS011;6021;51.182;3.160;2023-02-18T00:29:10;12.13;;;9.37;;
11921;SDS011;6021;51.182;3.160;2023-02-18T00:31:38;11.53;;;8.73;;
11921;SDS011;6021;51.182;3.160;2023-02-18T00:34:07;13.13;;;9.23;;
11921;SDS011;6021;51.182;3.160;2023-02-18T00:36:36;12.83;;;9.23;;
11921;SDS011;6021;51.182;3.160;2023-02-18T00:39:06;11.00;;;8.00;;
11921;SDS011;6021;51.182;3.160;2023-02-18T00:41:36;13.93;;;8.20;;
11921;SDS011;6021;51.182;3.160;2023-02-18T00:44:04;14.63;;;8.83;;
11921;SDS011;6021;51.182;3.160;2023-02-18T00:46:33;12.07;;;8.17;;
11921;SDS011;6021;51.182;3.160;2023-02-18T00:49:02;13.93;;;8.63;;
11921;SDS011;6021;51.182;3.160;2023-02-18T00:51:32;13.97;;;8.90;;
11921;SDS011;6021;51.182;3.160;2023-02-18T00:54:01;14.07;;;8.93;;
11921;SDS011;6021;51.182;3.160;2023-02-18T00:56:29;15.73;;;8.87;;
11921;SDS011;6021;51.182;3.160;2023-02-18T00:58:57;14.03;;;9.57;;
11921;SDS011;6021;51.182;3.160;2023-02-18T01:01:26;13.50;;;9.40;;
11921;SDS011;6021;51.182;3.160;2023-02-18T01:03:54;16.07;;;10.10;;
11921;SDS011;6021;51.182;3.160;2023-02-18T01:06:23;14.17;;;10.07;;
11921;SDS011;6021;51.182;3.160;2023-02-18T01:08:51;15.33;;;10.50;;
11921;SDS011;6021;51.182;3.160;2023-02-18T01:11:20;18.40;;;11.63;;
11921;SDS011;6021;51.182;3.160;2023-02-18T01:13:48;15.37;;;10.77;;
11921;SDS011;6021;51.182;3.160;2023-02-18T01:16:17;13.73;;;9.93;;
11921;SDS011;6021;51.182;3.160;2023-02-18T01:18:45;13.37;;;10.27;;
11921;SDS011;6021;51.182;3.160;2023-02-18T01:21:14;13.70;;;10.00;;
11921;SDS011;6021;51.182;3.160;2023-02-18T01:23:43;12.67;;;9.27;;
11921;SDS011;6021;51.182;3.160;2023-02-18T01:26:11;11.40;;;8.67;;
11921;SDS011;6021;51.182;3.160;2023-02-18T01:28:40;11.87;;;8.90;;
11921;SDS011;6021;51.182;3.160;2023-02-18T01:31:10;13.00;;;9.33;;
11921;SDS011;6021;51.182;3.160;2023-02-18T01:33:41;10.10;;;8.20;;
11921;SDS011;6021;51.182;3.160;2023-02-18T01:36:10;12.23;;;9.00;;
11921;SDS011;6021;51.182;3.160;2023-02-18T01:38:39;12.40;;;8.67;;
11921;SDS011;6021;51.182;3.160;2023-02-18T01:41:09;12.87;;;8.80;;
11921;SDS011;6021;51.182;3.160;2023-02-18T01:43:38;13.63;;;8.50;;
11921;SDS011;6021;51.182;3.160;2023-02-18T01:46:14;13.00;;;7.97;;
11921;SDS011;6021;51.182;3.160;2023-02-18T01:51:22;14.43;;;8.90;;
11921;SDS011;6021;51.182;3.160;2023-02-18T01:54:28;14.90;;;9.03;;
11921;SDS011;6021;51.182;3.160;2023-02-18T01:56:34;12.10;;;8.73;;
11921;SDS011;6021;51.182;3.160;2023-02-18T01:59:15;17.47;;;9.43;;
11921;SDS011;6021;51.182;3.160;2023-02-18T02:01:41;13.03;;;8.13;;
11921;SDS011;6021;51.182;3.160;2023-02-18T02:04:11;12.20;;;8.40;;
11921;SDS011;6021;51.182;3.160;2023-02-18T02:06:40;15.23;;;7.97;;
11921;SDS011;6021;51.182;3.160;2023-02-18T02:09:09;11.47;;;8.00;;
11921;SDS011;6021;51.182;3.160;2023-02-18T02:11:46;13.83;;;8.07;;
11921;SDS011;6021;51.182;3.160;2023-02-18T02:14:29;12.97;;;8.30;;
11921;SDS011;6021;51.182;3.160;2023-02-18T02:17:19;11.50;;;7.40;;
11921;SDS011;6021;51.182;3.160;2023-02-18T02:22:58;13.67;;;8.40;;
11921;SDS011;6021;51.182;3.160;2023-02-18T02:28:28;13.57;;;8.20;;
11921;SDS011;6021;51.182;3.160;2023-02-18T02:42:45;11.10;;;7.20;;
11921;SDS011;6021;51.182;3.160;2023-02-18T02:45:44;13.43;;;10.00;;
11921;SDS011;6021;51.182;3.160;2023-02-18T02:51:32;12.10;;;7.00;;
11921;SDS011;6021;51.182;3.160;2023-02-18T02:54:18;11.83;;;5.97;;
11921;SDS011;6021;51.182;3.160;2023-02-18T02:56:46;12.07;;;6.37;;
11921;SDS011;6021;51.182;3.160;2023-02-18T02:59:24;12.67;;;6.20;;
11921;SDS011;6021;51.182;3.160;2023-02-18T03:04:31;11.37;;;8.50;;
11921;SDS011;6021;51.182;3.160;2023-02-18T03:13:02;9.33;;;6.73;;
11921;SDS011;6021;51.182;3.160;2023-02-18T03:15:52;8.83;;;5.90;;
11921;SDS011;6021;51.182;3.160;2023-02-18T03:18:33;9.13;;;6.10;;
11921;SDS011;6021;51.182;3.160;2023-02-18T03:21:11;9.13;;;6.13;;
11921;SDS011;6021;51.182;3.160;2023-02-18T03:24:05;10.30;;;5.60;;
11921;SDS011;6021;51.182;3.160;2023-02-18T03:26:30;8.60;;;5.73;;
11921;SDS011;6021;51.182;3.160;2023-02-18T03:29:01;9.00;;;6.97;;
11921;SDS011;6021;51.182;3.160;2023-02-18T03:31:33;9.33;;;6.43;;
11921;SDS011;6021;51.182;3.160;2023-02-18T03:34:06;9.50;;;6.20;;
11921;SDS011;6021;51.182;3.160;2023-02-18T03:36:36;12.50;;;7.10;;
11921;SDS011;6021;51.182;3.160;2023-02-18T03:42:00;10.80;;;8.77;;
11921;SDS011;6021;51.182;3.160;2023-02-18T03:44:29;12.53;;;6.97;;
11921;SDS011;6021;51.182;3.160;2023-02-18T03:46:59;16.70;;;11.53;;
11921;SDS011;6021;51.182;3.160;2023-02-18T03:49:27;15.50;;;11.63;;
11921;SDS011;6021;51.182;3.160;2023-02-18T03:51:56;16.23;;;11.83;;
11921;SDS011;6021;51.182;3.160;2023-02-18T03:54:24;16.87;;;12.63;;
11921;SDS011;6021;51.182;3.160;2023-02-18T03:56:53;14.57;;;9.87;;
11921;SDS011;6021;51.182;3.160;2023-02-18T03:59:21;16.53;;;9.50;;
11921;SDS011;6021;51.182;3.160;2023-02-18T04:01:49;14.57;;;8.80;;
11921;SDS011;6021;51.182;3.160;2023-02-18T04:04:18;12.93;;;10.70;;
11921;SDS011;6021;51.182;3.160;2023-02-18T04:06:46;13.53;;;10.20;;
11921;SDS011;6021;51.182;3.160;2023-02-18T04:09:14;12.33;;;9.07;;
11921;SDS011;6021;51.182;3.160;2023-02-18T04:11:43;10.20;;;6.20;;
11921;SDS011;6021;51.182;3.160;2023-02-18T04:14:12;9.63;;;8.00;;
11921;SDS011;6021;51.182;3.160;2023-02-18T04:16:41;11.97;;;8.33;;
11921;SDS011;6021;51.182;3.160;2023-02-18T04:19:09;11.33;;;7.80;;
11921;SDS011;6021;51.182;3.160;2023-02-18T04:21:38;14.03;;;8.40;;
11921;SDS011;6021;51.182;3.160;2023-02-18T04:24:06;14.23;;;8.53;;
11921;SDS011;6021;51.182;3.160;2023-02-18T04:26:35;14.90;;;8.60;;
11921;SDS011;6021;51.182;3.160;2023-02-18T04:29:03;16.33;;;8.40;;
11921;SDS011;6021;51.182;3.160;2023-02-18T04:31:31;15.73;;;8.13;;
11921;SDS011;6021;51.182;3.160;2023-02-18T04:34:00;14.57;;;7.57;;
11921;SDS011;6021;51.182;3.160;2023-02-18T04:36:28;12.77;;;7.30;;
11921;SDS011;6021;51.182;3.160;2023-02-18T04:38:59;14.13;;;6.97;;
11921;SDS011;6021;51.182;3.160;2023-02-18T04:41:28;13.80;;;7.17;;
11921;SDS011;6021;51.182;3.160;2023-02-18T04:43:56;14.07;;;6.63;;
11921;SDS011;6021;51.182;3.160;2023-02-18T04:46:25;18.40;;;7.40;;
11921;SDS011;6021;51.182;3.160;2023-02-18T04:48:53;15.77;;;6.90;;
11921;SDS011;6021;51.182;3.160;2023-02-18T04:51:22;17.70;;;6.70;;
11921;SDS011;6021;51.182;3.160;2023-02-18T04:53:50;15.37;;;6.57;;
11921;SDS011;6021;51.182;3.160;2023-02-18T04:56:18;19.40;;;6.40;;
11921;SDS011;6021;51.182;3.160;2023-02-18T04:58:47;17.43;;;6.23;;
11921;SDS011;6021;51.182;3.160;2023-02-18T05:01:15;17.00;;;6.20;;
11921;SDS011;6021;51.182;3.160;2023-02-18T05:03:43;20.73;;;5.93;;
11921;SDS011;6021;51.182;3.160;2023-02-18T05:06:12;22.80;;;6.03;;
11921;SDS011;6021;51.182;3.160;2023-02-18T05:08:40;16.23;;;5.57;;
11921;SDS011;6021;51.182;3.160;2023-02-18T05:11:09;17.17;;;5.37;;
11921;SDS011;6021;51.182;3.160;2023-02-18T05:13:37;19.20;;;5.07;;
11921;SDS011;6021;51.182;3.160;2023-02-18T05:16:05;17.03;;;4.90;;
11921;SDS011;6021;51.182;3.160;2023-02-18T05:18:34;18.00;;;4.40;;
11921;SDS011;6021;51.182;3.160;2023-02-18T05:21:02;14.67;;;4.07;;
11921;SDS011;6021;51.182;3.160;2023-02-18T05:23:30;13.73;;;3.93;;
11921;SDS011;6021;51.182;3.160;2023-02-18T05:25:59;15.70;;;4.23;;
11921;SDS011;6021;51.182;3.160;2023-02-18T05:28:27;15.17;;;3.70;;
11921;SDS011;6021;51.182;3.160;2023-02-18T05:30:56;15.67;;;4.10;;
11921;SDS011;6021;51.182;3.160;2023-02-18T05:33:24;14.17;;;3.53;;
11921;SDS011;6021;51.182;3.160;2023-02-18T05:35:53;15.47;;;3.43;;
11921;SDS011;6021;51.182;3.160;2023-02-18T05:38:22;15.53;;;3.90;;
11921;SDS011;6021;51.182;3.160;2023-02-18T05:40:50;15.03;;;3.83;;
11921;SDS011;6021;51.182;3.160;2023-02-18T05:43:19;9.93;;;2.47;;
11921;SDS011;6021;51.182;3.160;2023-02-18T05:45:47;9.00;;;2.77;;
11921;SDS011;6021;51.182;3.160;2023-02-18T05:48:16;12.10;;;2.80;;
11921;SDS011;6021;51.182;3.160;2023-02-18T05:50:44;10.90;;;2.93;;
11921;SDS011;6021;51.182;3.160;2023-02-18T05:53:13;13.40;;;3.07;;
11921;SDS011;6021;51.182;3.160;2023-02-18T05:55:41;10.50;;;2.70;;
11921;SDS011;6021;51.182;3.160;2023-02-18T05:58:11;9.67;;;2.60;;
11921;SDS011;6021;51.182;3.160;2023-02-18T06:00:39;11.33;;;2.40;;
11921;SDS011;6021;51.182;3.160;2023-02-18T06:03:07;8.70;;;2.63;;
11921;SDS011;6021;51.182;3.160;2023-02-18T06:05:36;14.73;;;2.33;;
11921;SDS011;6021;51.182;3.160;2023-02-18T06:08:04;11.73;;;2.37;;
11921;SDS011;6021;51.182;3.160;2023-02-18T06:10:32;10.83;;;2.83;;
11921;SDS011;6021;51.182;3.160;2023-02-18T06:13:01;6.37;;;1.97;;
11921;SDS011;6021;51.182;3.160;2023-02-18T06:15:29;10.00;;;2.40;;
11921;SDS011;6021;51.182;3.160;2023-02-18T06:17:58;13.30;;;2.60;;
11921;SDS011;6021;51.182;3.160;2023-02-18T06:20:26;16.60;;;2.90;;
11921;SDS011;6021;51.182;3.160;2023-02-18T06:22:54;11.33;;;2.50;;
11921;SDS011;6021;51.182;3.160;2023-02-18T06:25:23;8.33;;;2.70;;
11921;SDS011;6021;51.182;3.160;2023-02-18T06:27:51;7.87;;;2.40;;
11921;SDS011;6021;51.182;3.160;2023-02-18T06:30:20;12.97;;;2.67;;
11921;SDS011;6021;51.182;3.160;2023-02-18T06:32:48;11.20;;;2.70;;
11921;SDS011;6021;51.182;3.160;2023-02-18T06:35:16;12.43;;;2.50;;
11921;SDS011;6021;51.182;3.160;2023-02-18T06:37:45;10.37;;;2.73;;
11921;SDS011;6021;51.182;3.160;2023-02-18T06:40:15;8.83;;;2.80;;
11921;SDS011;6021;51.182;3.160;2023-02-18T06:42:44;12.50;;;2.93;;
11921;SDS011;6021;51.182;3.160;2023-02-18T06:45:12;11.27;;;2.33;;
11921;SDS011;6021;51.182;3.160;2023-02-18T06:47:40;10.67;;;2.67;;
11921;SDS011;6021;51.182;3.160;2023-02-18T06:50:09;10.67;;;2.30;;
11921;SDS011;6021;51.182;3.160;2023-02-18T06:52:38;8.07;;;2.53;;
11921;SDS011;6021;51.182;3.160;2023-02-18T06:55:08;10.03;;;2.90;;
11921;SDS011;6021;51.182;3.160;2023-02-18T06:57:37;13.13;;;2.63;;
11921;SDS011;6021;51.182;3.160;2023-02-18T07:00:05;13.67;;;3.40;;
11921;SDS011;6021;51.182;3.160;2023-02-18T07:02:34;15.17;;;3.60;;
11921;SDS011;6021;51.182;3.160;2023-02-18T07:05:03;11.67;;;3.00;;
11921;SDS011;6021;51.182;3.160;2023-02-18T07:07:32;10.47;;;2.83;;
11921;SDS011;6021;51.182;3.160;2023-02-18T07:10:00;10.37;;;3.00;;
11921;SDS011;6021;51.182;3.160;2023-02-18T07:12:29;14.80;;;3.10;;
11921;SDS011;6021;51.182;3.160;2023-02-18T07:14:57;11.50;;;2.77;;
11921;SDS011;6021;51.182;3.160;2023-02-18T07:17:26;14.40;;;2.90;;
11921;SDS011;6021;51.182;3.160;2023-02-18T07:19:55;11.87;;;2.80;;
11921;SDS011;6021;51.182;3.160;2023-02-18T07:22:24;9.67;;;2.73;;
11921;SDS011;6021;51.182;3.160;2023-02-18T07:24:52;8.97;;;2.60;;
11921;SDS011;6021;51.182;3.160;2023-02-18T07:27:21;13.40;;;2.93;;
11921;SDS011;6021;51.182;3.160;2023-02-18T07:29:49;11.70;;;3.10;;
11921;SDS011;6021;51.182;3.160;2023-02-18T07:32:18;11.50;;;2.80;;
11921;SDS011;6021;51.182;3.160;2023-02-18T07:34:47;11.23;;;3.00;;
11921;SDS011;6021;51.182;3.160;2023-02-18T07:37:18;9.40;;;2.37;;
11921;SDS011;6021;51.182;3.160;2023-02-18T07:39:47;12.53;;;2.80;;
11921;SDS011;6021;51.182;3.160;2023-02-18T07:42:15;9.27;;;2.53;;
11921;SDS011;6021;51.182;3.160;2023-02-18T07:44:44;9.03;;;2.50;;
11921;SDS011;6021;51.182;3.160;2023-02-18T07:47:14;10.63;;;2.60;;
11921;SDS011;6021;51.182;3.160;2023-02-18T07:49:45;9.30;;;2.37;;
11921;SDS011;6021;51.182;3.160;2023-02-18T07:52:14;10.83;;;2.63;;
11921;SDS011;6021;51.182;3.160;2023-02-18T07:54:43;8.23;;;2.43;;
11921;SDS011;6021;51.182;3.160;2023-02-18T07:57:13;10.27;;;2.53;;
11921;SDS011;6021;51.182;3.160;2023-02-18T07:59:41;9.23;;;2.27;;
11921;SDS011;6021;51.182;3.160;2023-02-18T08:02:16;8.00;;;2.23;;
11921;SDS011;6021;51.182;3.160;2023-02-18T08:04:50;9.13;;;2.57;;
11921;SDS011;6021;51.182;3.160;2023-02-18T08:07:18;10.30;;;2.30;;
11921;SDS011;6021;51.182;3.160;2023-02-18T08:09:49;7.17;;;2.47;;
11921;SDS011;6021;51.182;3.160;2023-02-18T08:12:17;8.87;;;2.40;;
11921;SDS011;6021;51.182;3.160;2023-02-18T08:14:45;6.57;;;1.77;;
11921;SDS011;6021;51.182;3.160;2023-02-18T08:17:14;8.57;;;1.80;;
11921;SDS011;6021;51.182;3.160;2023-02-18T08:19:43;5.30;;;1.90;;
11921;SDS011;6021;51.182;3.160;2023-02-18T08:22:11;8.17;;;2.23;;
11921;SDS011;6021;51.182;3.160;2023-02-18T08:24:40;6.30;;;1.70;;
11921;SDS011;6021;51.182;3.160;2023-02-18T08:27:08;7.23;;;2.20;;
11921;SDS011;6021;51.182;3.160;2023-02-18T08:29:38;8.70;;;2.53;;
11921;SDS011;6021;51.182;3.160;2023-02-18T08:32:07;4.93;;;1.90;;
11921;SDS011;6021;51.182;3.160;2023-02-18T08:34:35;9.30;;;2.13;;
11921;SDS011;6021;51.182;3.160;2023-02-18T08:37:04;9.10;;;2.17;;
11921;SDS011;6021;51.182;3.160;2023-02-18T08:39:35;6.87;;;1.63;;
11921;SDS011;6021;51.182;3.160;2023-02-18T08:42:04;6.83;;;1.50;;
11921;SDS011;6021;51.182;3.160;2023-02-18T08:44:33;9.57;;;1.87;;
11921;SDS011;6021;51.182;3.160;2023-02-18T08:47:01;6.00;;;2.00;;
11921;SDS011;6021;51.182;3.160;2023-02-18T08:49:29;8.97;;;1.80;;
11921;SDS011;6021;51.182;3.160;2023-02-18T08:51:59;4.40;;;1.70;;
11921;SDS011;6021;51.182;3.160;2023-02-18T08:54:28;6.70;;;1.80;;
11921;SDS011;6021;51.182;3.160;2023-02-18T08:56:57;9.07;;;1.80;;
11921;SDS011;6021;51.182;3.160;2023-02-18T08:59:26;4.30;;;1.60;;
11921;SDS011;6021;51.182;3.160;2023-02-18T09:01:55;5.67;;;1.50;;
11921;SDS011;6021;51.182;3.160;2023-02-18T09:04:24;5.33;;;1.60;;
11921;SDS011;6021;51.182;3.160;2023-02-18T09:06:52;8.87;;;1.93;;
11921;SDS011;6021;51.182;3.160;2023-02-18T09:09:21;7.67;;;1.80;;
11921;SDS011;6021;51.182;3.160;2023-02-18T09:11:50;6.77;;;1.70;;
11921;SDS011;6021;51.182;3.160;2023-02-18T09:14:18;5.30;;;1.50;;
11921;SDS011;6021;51.182;3.160;2023-02-18T09:16:47;9.40;;;1.73;;
11921;SDS011;6021;51.182;3.160;2023-02-18T09:19:16;5.23;;;1.77;;
11921;SDS011;6021;51.182;3.160;2023-02-18T09:21:45;8.93;;;1.90;;
11921;SDS011;6021;51.182;3.160;2023-02-18T09:24:13;6.33;;;1.80;;
11921;SDS011;6021;51.182;3.160;2023-02-18T09:26:41;7.37;;;1.70;;
11921;SDS011;6021;51.182;3.160;2023-02-18T09:29:10;6.13;;;1.60;;
11921;SDS011;6021;51.182;3.160;2023-02-18T09:31:44;8.03;;;2.17;;
11921;SDS011;6021;51.182;3.160;2023-02-18T09:34:11;5.23;;;1.80;;
11921;SDS011;6021;51.182;3.160;2023-02-18T09:36:42;9.00;;;1.80;;
11921;SDS011;6021;51.182;3.160;2023-02-18T09:39:10;4.63;;;1.50;;
11921;SDS011;6021;51.182;3.160;2023-02-18T09:41:47;7.63;;;1.80;;
11921;SDS011;6021;51.182;3.160;2023-02-18T09:44:24;6.90;;;1.70;;
11921;SDS011;6021;51.182;3.160;2023-02-18T09:49:30;9.67;;;2.43;;
11921;SDS011;6021;51.182;3.160;2023-02-18T09:52:06;9.30;;;2.00;;
11921;SDS011;6021;51.182;3.160;2023-02-18T09:54:40;8.37;;;1.90;;
11921;SDS011;6021;51.182;3.160;2023-02-18T09:57:14;6.93;;;1.80;;
11921;SDS011;6021;51.182;3.160;2023-02-18T10:00:03;5.80;;;1.83;;
11921;SDS011;6021;51.182;3.160;2023-02-18T10:02:52;9.83;;;2.07;;
11921;SDS011;6021;51.182;3.160;2023-02-18T10:05:40;8.93;;;2.07;;
11921;SDS011;6021;51.182;3.160;2023-02-18T10:08:26;5.57;;;1.70;;
11921;SDS011;6021;51.182;3.160;2023-02-18T10:11:02;5.53;;;1.73;;
11921;SDS011;6021;51.182;3.160;2023-02-18T10:13:33;10.20;;;2.00;;
11921;SDS011;6021;51.182;3.160;2023-02-18T10:16:04;7.73;;;2.00;;
11921;SDS011;6021;51.182;3.160;2023-02-18T10:18:45;8.00;;;2.80;;
11921;SDS011;6021;51.182;3.160;2023-02-18T10:21:11;9.77;;;2.23;;
11921;SDS011;6021;51.182;3.160;2023-02-18T10:24:03;8.27;;;2.20;;
11921;SDS011;6021;51.182;3.160;2023-02-18T10:26:28;8.47;;;1.83;;
11921;SDS011;6021;51.182;3.160;2023-02-18T10:29:00;6.37;;;2.00;;
11921;SDS011;6021;51.182;3.160;2023-02-18T10:31:32;8.23;;;2.07;;
11921;SDS011;6021;51.182;3.160;2023-02-18T10:34:29;9.20;;;2.10;;
11921;SDS011;6021;51.182;3.160;2023-02-18T10:36:36;9.57;;;2.40;;
11921;SDS011;6021;51.182;3.160;2023-02-18T10:39:25;6.67;;;1.87;;
11921;SDS011;6021;51.182;3.160;2023-02-18T10:42:12;7.87;;;2.00;;
11921;SDS011;6021;51.182;3.160;2023-02-18T10:47:48;10.93;;;2.40;;
11921;SDS011;6021;51.182;3.160;2023-02-18T10:50:31;9.43;;;2.30;;
11921;SDS011;6021;51.182;3.160;2023-02-18T10:53:13;8.67;;;2.20;;
11921;SDS011;6021;51.182;3.160;2023-02-18T10:56:00;9.13;;;2.00;;
11921;SDS011;6021;51.182;3.160;2023-02-18T10:58:36;8.77;;;2.37;;
11921;SDS011;6021;51.182;3.160;2023-02-18T11:01:15;11.27;;;2.20;;
11921;SDS011;6021;51.182;3.160;2023-02-18T11:03:47;8.67;;;2.40;;
11921;SDS011;6021;51.182;3.160;2023-02-18T11:06:32;9.47;;;2.20;;
11921;SDS011;6021;51.182;3.160;2023-02-18T11:09:02;7.40;;;2.00;;
11921;SDS011;6021;51.182;3.160;2023-02-18T11:11:39;8.77;;;2.33;;
11921;SDS011;6021;51.182;3.160;2023-02-18T11:14:09;6.57;;;2.13;;
11921;SDS011;6021;51.182;3.160;2023-02-18T11:16:43;7.10;;;2.70;;
11921;SDS011;6021;51.182;3.160;2023-02-18T11:19:30;11.17;;;2.63;;
11921;SDS011;6021;51.182;3.160;2023-02-18T11:22:17;8.03;;;2.53;;
11921;SDS011;6021;51.182;3.160;2023-02-18T11:24:56;9.07;;;2.50;;
11921;SDS011;6021;51.182;3.160;2023-02-18T11:35:38;8.90;;;2.73;;
11921;SDS011;6021;51.182;3.160;2023-02-18T11:38:17;7.70;;;3.10;;
11921;SDS011;6021;51.182;3.160;2023-02-18T11:41:02;10.40;;;2.87;;
11921;SDS011;6021;51.182;3.160;2023-02-18T11:43:29;9.03;;;2.77;;
11921;SDS011;6021;51.182;3.160;2023-02-18T11:46:19;13.63;;;3.07;;
11921;SDS011;6021;51.182;3.160;2023-02-18T11:48:44;10.00;;;3.00;;
11921;SDS011;6021;51.182;3.160;2023-02-18T11:54:01;8.73;;;3.17;;
11921;SDS011;6021;51.182;3.160;2023-02-18T11:56:32;11.03;;;3.13;;
11921;SDS011;6021;51.182;3.160;2023-02-18T11:59:02;11.03;;;3.50;;
11921;SDS011;6021;51.182;3.160;2023-02-18T12:01:37;11.77;;;3.10;;
11921;SDS011;6021;51.182;3.160;2023-02-18T12:04:13;10.70;;;3.20;;
11921;SDS011;6021;51.182;3.160;2023-02-18T12:12:41;10.70;;;3.33;;
11921;SDS011;6021;51.182;3.160;2023-02-18T12:15:03;11.23;;;3.30;;
11921;SDS011;6021;51.182;3.160;2023-02-18T12:23:26;12.20;;;3.13;;
11921;SDS011;6021;51.182;3.160;2023-02-18T12:25:54;12.13;;;3.90;;
11921;SDS011;6021;51.182;3.160;2023-02-18T12:28:30;7.50;;;3.07;;
11921;SDS011;6021;51.182;3.160;2023-02-18T12:34:36;9.77;;;3.47;;
11921;SDS011;6021;51.182;3.160;2023-02-18T12:38:58;8.63;;;3.37;;
11921;SDS011;6021;51.182;3.160;2023-02-18T12:52:45;11.47;;;3.87;;
11921;SDS011;6021;51.182;3.160;2023-02-18T12:57:49;9.70;;;4.03;;
11921;SDS011;6021;51.182;3.160;2023-02-18T13:00:43;9.50;;;3.57;;
11921;SDS011;6021;51.182;3.160;2023-02-18T13:09:21;10.37;;;3.50;;
11921;SDS011;6021;51.182;3.160;2023-02-18T13:11:51;7.87;;;2.90;;
11921;SDS011;6021;51.182;3.160;2023-02-18T13:14:34;8.50;;;3.00;;
11921;SDS011;6021;51.182;3.160;2023-02-18T13:16:59;12.90;;;3.97;;
11921;SDS011;6021;51.182;3.160;2023-02-18T13:19:45;9.00;;;3.10;;
11921;SDS011;6021;51.182;3.160;2023-02-18T13:22:20;13.50;;;3.40;;
11921;SDS011;6021;51.182;3.160;2023-02-18T13:24:54;10.93;;;3.40;;
11921;SDS011;6021;51.182;3.160;2023-02-18T13:33:18;9.47;;;3.90;;
11921;SDS011;6021;51.182;3.160;2023-02-18T13:35:56;11.53;;;3.87;;
11921;SDS011;6021;51.182;3.160;2023-02-18T13:46:49;8.13;;;3.10;;
11921;SDS011;6021;51.182;3.160;2023-02-18T15:15:38;12.33;;;3.93;;
11921;SDS011;6021;51.182;3.160;2023-02-18T15:18:15;12.47;;;4.83;;
11921;SDS011;6021;51.182;3.160;2023-02-18T15:20:40;10.83;;;4.53;;
11921;SDS011;6021;51.182;3.160;2023-02-18T15:23:12;9.83;;;3.53;;
11921;SDS011;6021;51.182;3.160;2023-02-18T15:25:47;10.30;;;3.43;;
11921;SDS011;6021;51.182;3.160;2023-02-18T15:28:26;9.60;;;4.30;;
11921;SDS011;6021;51.182;3.160;2023-02-18T15:30:51;9.63;;;3.63;;
11921;SDS011;6021;51.182;3.160;2023-02-18T15:33:20;8.03;;;3.83;;
11921;SDS011;6021;51.182;3.160;2023-02-18T15:35:49;8.27;;;3.70;;
11921;SDS011;6021;51.182;3.160;2023-02-18T15:38:19;11.90;;;4.00;;
11921;SDS011;6021;51.182;3.160;2023-02-18T15:40:51;11.50;;;4.40;;
11921;SDS011;6021;51.182;3.160;2023-02-18T15:43:22;10.57;;;4.40;;
11921;SDS011;6021;51.182;3.160;2023-02-18T15:45:54;12.33;;;5.07;;
11921;SDS011;6021;51.182;3.160;2023-02-18T15:48:31;12.70;;;4.83;;
11921;SDS011;6021;51.182;3.160;2023-02-18T15:51:09;13.60;;;5.17;;
11921;SDS011;6021;51.182;3.160;2023-02-18T15:53:40;16.00;;;5.53;;
11921;SDS011;6021;51.182;3.160;2023-02-18T15:56:16;12.23;;;4.60;;
11921;SDS011;6021;51.182;3.160;2023-02-18T15:58:45;14.40;;;5.47;;
11921;SDS011;6021;51.182;3.160;2023-02-18T16:01:24;11.90;;;4.80;;
11921;SDS011;6021;51.182;3.160;2023-02-18T16:03:51;13.40;;;4.80;;
11921;SDS011;6021;51.182;3.160;2023-02-18T16:06:22;15.40;;;4.57;;
11921;SDS011;6021;51.182;3.160;2023-02-18T16:08:57;13.63;;;5.03;;
11921;SDS011;6021;51.182;3.160;2023-02-18T16:11:28;16.90;;;4.53;;
11921;SDS011;6021;51.182;3.160;2023-02-18T16:13:58;15.77;;;4.90;;
11921;SDS011;6021;51.182;3.160;2023-02-18T16:16:27;16.10;;;5.47;;
11921;SDS011;6021;51.182;3.160;2023-02-18T16:19:00;12.70;;;5.00;;
11921;SDS011;6021;51.182;3.160;2023-02-18T16:21:37;14.23;;;5.17;;
11921;SDS011;6021;51.182;3.160;2023-02-18T16:24:27;19.20;;;4.93;;
11921;SDS011;6021;51.182;3.160;2023-02-18T16:26:58;19.33;;;6.03;;
11921;SDS011;6021;51.182;3.160;2023-02-18T16:32:02;16.27;;;5.73;;
11921;SDS011;6021;51.182;3.160;2023-02-18T16:34:31;15.37;;;5.40;;
11921;SDS011;6021;51.182;3.160;2023-02-18T16:37:01;16.43;;;5.90;;
11921;SDS011;6021;51.182;3.160;2023-02-18T16:39:48;16.63;;;5.93;;
11921;SDS011;6021;51.182;3.160;2023-02-18T16:42:19;15.47;;;5.67;;
11921;SDS011;6021;51.182;3.160;2023-02-18T16:44:48;20.57;;;6.33;;
11921;SDS011;6021;51.182;3.160;2023-02-18T16:47:17;13.23;;;5.47;;
11921;SDS011;6021;51.182;3.160;2023-02-18T16:49:48;16.40;;;5.40;;
11921;SDS011;6021;51.182;3.160;2023-02-18T16:52:17;15.80;;;5.20;;
11921;SDS011;6021;51.182;3.160;2023-02-18T16:54:45;12.00;;;5.00;;
11921;SDS011;6021;51.182;3.160;2023-02-18T16:57:15;12.40;;;5.00;;
11921;SDS011;6021;51.182;3.160;2023-02-18T16:59:44;15.33;;;5.33;;
11921;SDS011;6021;51.182;3.160;2023-02-18T17:02:14;13.93;;;5.73;;
11921;SDS011;6021;51.182;3.160;2023-02-18T17:04:48;15.83;;;5.60;;
11921;SDS011;6021;51.182;3.160;2023-02-18T17:07:18;16.50;;;5.77;;
11921;SDS011;6021;51.182;3.160;2023-02-18T17:09:46;15.07;;;6.07;;
11921;SDS011;6021;51.182;3.160;2023-02-18T17:12:15;14.83;;;6.37;;
11921;SDS011;6021;51.182;3.160;2023-02-18T17:14:43;22.73;;;7.60;;
11921;SDS011;6021;51.182;3.160;2023-02-18T17:17:12;15.50;;;6.90;;
11921;SDS011;6021;51.182;3.160;2023-02-18T17:19:42;18.07;;;7.73;;
11921;SDS011;6021;51.182;3.160;2023-02-18T17:22:11;18.50;;;7.17;;
11921;SDS011;6021;51.182;3.160;2023-02-18T17:24:40;16.90;;;7.60;;
11921;SDS011;6021;51.182;3.160;2023-02-18T17:27:09;21.03;;;7.27;;
11921;SDS011;6021;51.182;3.160;2023-02-18T17:29:37;18.73;;;7.70;;
11921;SDS011;6021;51.182;3.160;2023-02-18T17:32:10;20.77;;;7.23;;
11921;SDS011;6021;51.182;3.160;2023-02-18T17:34:40;16.80;;;7.80;;
11921;SDS011;6021;51.182;3.160;2023-02-18T17:37:11;20.23;;;8.13;;
11921;SDS011;6021;51.182;3.160;2023-02-18T17:39:40;21.77;;;8.83;;
11921;SDS011;6021;51.182;3.160;2023-02-18T17:42:09;22.37;;;9.37;;
11921;SDS011;6021;51.182;3.160;2023-02-18T17:44:40;17.60;;;7.40;;
11921;SDS011;6021;51.182;3.160;2023-02-18T17:47:08;19.53;;;7.27;;
11921;SDS011;6021;51.182;3.160;2023-02-18T17:49:36;17.77;;;7.47;;
11921;SDS011;6021;51.182;3.160;2023-02-18T17:52:05;17.63;;;7.20;;
11921;SDS011;6021;51.182;3.160;2023-02-18T17:54:33;19.13;;;7.27;;
11921;SDS011;6021;51.182;3.160;2023-02-18T17:57:01;20.20;;;7.17;;
11921;SDS011;6021;51.182;3.160;2023-02-18T17:59:30;16.83;;;6.93;;
11921;SDS011;6021;51.182;3.160;2023-02-18T18:01:58;19.10;;;7.40;;
11921;SDS011;6021;51.182;3.160;2023-02-18T18:04:27;17.30;;;6.63;;
11921;SDS011;6021;51.182;3.160;2023-02-18T18:06:55;15.80;;;6.60;;
11921;SDS011;6021;51.182;3.160;2023-02-18T18:09:23;18.07;;;7.27;;
11921;SDS011;6021;51.182;3.160;2023-02-18T18:11:52;18.37;;;7.10;;
11921;SDS011;6021;51.182;3.160;2023-02-18T18:14:20;18.67;;;7.17;;
11921;SDS011;6021;51.182;3.160;2023-02-18T18:16:48;19.17;;;6.50;;
11921;SDS011;6021;51.182;3.160;2023-02-18T18:19:17;17.10;;;7.70;;
11921;SDS011;6021;51.182;3.160;2023-02-18T18:21:45;17.20;;;7.23;;
11921;SDS011;6021;51.182;3.160;2023-02-18T18:24:16;20.57;;;7.80;;
11921;SDS011;6021;51.182;3.160;2023-02-18T18:26:44;19.13;;;7.07;;